Atlantic - Newfoundland: Past 24 Hour Conditions

 

J.A. Douglas McCurdy Sydney Airport

09:00 AM ADT 30 August 2014
This table is a summary of hourly weather conditions for the past 24 hours.
Date / Time
(ADT)
Wind(knots) Conditions Visibility(km) Pressure(kPa) Air tempC) Relative humidity(%) Dew pointC)
30 August 2014
9:00 WSW 8 Mainly Sunny 24 102.5 14 70 9
8:00 WSW 6 Mainly Sunny 24 102.5 10 84 7
7:00 WSW 8 Partly Cloudy 24 102.5 6 93 5
6:00 WSW 8 Mainly Clear 24 102.4 5 94 4
5:00 W 7 Clear 24 102.3 6 94 5
4:00 WNW 9 Mainly Clear 24 102.3 7 92 6
3:00 WSW 5 Mainly Clear 24 102.3 8 93 7
2:00 WSW 7 Mainly Clear 24 102.2 9 90 7
1:00 WNW 5 Mainly Clear 24 102.2 11 82 8
0:00 N 8 Mainly Clear 24 102.1 12 69 7
29 August 2014
23:00 N 14 Mainly Clear 24 102.1 13 66 7
22:00 N 12 gust 18 Mainly Clear 24 102.0 13 68 7
21:00 N 14 gust 19 Partly Cloudy 24 102.0 13 71 8
20:00 NNW 19 gust 27 Partly Cloudy 24 101.9 13 70 8
19:00 N 16 gust 22 Partly Cloudy 24 101.8 14 72 9
18:00 NNW 21 gust 27 Partly Cloudy 24 101.7 14 68 8
17:00 N 19 gust 31 Partly Cloudy 24 101.6 15 64 9
16:00 N 19 gust 27 Cloudy 24 101.5 15 67 9
15:00 NNE 19 gust 26 Light Rainshower 24 101.4 13 81 10
14:00 N 16 gust 21 Light Rainshower 6 101.3 13 92 11
13:00 NNE 14 gust 22 Light Rainshower 16 101.2 13 85 11
12:00 NNE 19 gust 26 Light Rainshower 16 101.1 13 86 11
11:00 NNE 16 gust 24 Light Rainshower 16 101.0 13 91 11
10:00 NNE 16 gust 23 Light Rainshower 10 100.9 13 92 12
9:00 NNE 13 gust 24 Light Rainshower 6 100.8 13 92 12
 
Map of Atlantic - Newfoundland marine weather areas Southwestern Grand Banks - 44138 Banquereau - 44139 Tail of the Bank - 44140 Nickerson Bank - 44251 Northeast Burgeo Bank - 44255 Blanc-Sablon Airport Cap Whittle Chevery Natashquan Airport Heath Point Miscou Island Grand Étang Ingonish Beach North Mountain St.Paul Island J.A. Douglas McCurdy Sydney Airport Charlottetown Airport East Point North Cape Argentia Bonavista Burgeo Cape Race Corner Brook Daniel's Harbour Englee Ferolle Point La Scie Port aux Basques Rocky Harbour Sagona Island St. Anthony Airport St. John's Int'l Airport St. Lawrence Stephenville Airport Twillingate Winterland Wreckhouse Cartwright Airport Mary's Harbour Grates Cove Pool's Island Marticot Island Long Pond Îles de la Madeleine Airport
Legend: buoyBuoy land stationLand Station